Thunder radar more information blitzortung!


Radar de pluja more information rain snow radar


Visita la nostra xarxa de llocs de meteo:

Template documentation
and downloads

And another site



No particular awareness of the weather is required.    There are no Weather-warnings

Pagina Historial Weather Underground text

Diari Resum May 9, 2017 Unitats:  Mètric    Imperial   Tant
« Previous Dia
SegĂźent Dia »
Diari Setmana Mensual Anual Personalitzada
  Maxima: Minima: Media:
Temperatura: 24.9 °C 10.2 °C 17.9 °C
Punt de rosada: 12.3 °C 6.3 °C 10.4 °C
Humitat: 81 % 36 % 63 %
Wind Speed: 20.4 km/h 0.0 km/h 6.7 km/h
RĂ fegues de vent: 20.4 km/h - -
Vent:- - SE
Pression baro: 1015.8 hPa 1006.0 hPa -
Precipitacions: 0.0 mm    
Historical Graphs
 
 
Dades de taula per May 9, 2017
Temps Temperatura Punt de rosada Pression baro Vent Wind Speed RĂ fegues de vent Humitat Rainfall Rate (Hourly)
00:00 14.6 °C 8.1 °C 1015.8 hPa Calm     65 % 0.0 mm
00:05 14.5 °C 8.0 °C 1015.8 hPa Calm     65 % 0.0 mm
00:10 10.9 °C 6.8 °C 1013.8 hPa Calm   3.2 km/h 76 % 0.0 mm
00:20 10.9 °C 6.8 °C 1013.8 hPa SW 1.6 km/h 1.6 km/h 76 % 0.0 mm
00:30 10.8 °C 6.7 °C 1013.8 hPa Calm     76 % 0.0 mm
00:40 10.7 °C 6.7 °C 1013.8 hPa Calm     76 % 0.0 mm
00:50 10.6 °C 6.6 °C 1013.8 hPa SW 1.6 km/h 1.6 km/h 76 % 0.0 mm
01:00 10.6 °C 6.6 °C 1013.8 hPa WSW 1.6 km/h 3.2 km/h 76 % 0.0 mm
01:10 10.5 °C 6.6 °C 1013.8 hPa Calm     77 % 0.0 mm
01:20 10.5 °C 6.6 °C 1013.8 hPa Calm     77 % 0.0 mm
01:30 10.6 °C 6.7 °C 1013.8 hPa Calm     77 % 0.0 mm
01:40 10.5 °C 6.6 °C 1013.8 hPa Calm     77 % 0.0 mm
01:50 10.2 °C 6.3 °C 1012.8 hPa Calm     77 % 0.0 mm
02:00 10.2 °C 6.3 °C 1012.8 hPa WSW 1.6 km/h 3.2 km/h 77 % 0.0 mm
02:10 10.2 °C 6.6 °C 1013.8 hPa SW 1.6 km/h 3.2 km/h 78 % 0.0 mm
02:20 10.3 °C 6.6 °C 1014.8 hPa SW 1.6 km/h 3.2 km/h 78 % 0.0 mm
02:30 10.4 °C 6.7 °C 1014.8 hPa SW 1.6 km/h 1.6 km/h 78 % 0.0 mm
02:40 10.6 °C 6.9 °C 1012.8 hPa SW 1.6 km/h 3.2 km/h 78 % 0.0 mm
02:50 11.1 °C 7.4 °C 1013.8 hPa SW 1.6 km/h 3.2 km/h 78 % 0.0 mm
03:00 11.5 °C 7.6 °C 1013.8 hPa SW 1.6 km/h 4.8 km/h 77 % 0.0 mm
03:10 12.1 °C 8.2 °C 1013.8 hPa Calm   3.2 km/h 77 % 0.0 mm
03:20 12.7 °C 8.8 °C 1013.8 hPa Calm   3.2 km/h 77 % 0.0 mm
03:30 13.8 °C 9.7 °C 1013.8 hPa Calm   1.6 km/h 76 % 0.0 mm
03:40 13.4 °C 9.1 °C 1013.8 hPa SW 3.2 km/h 3.2 km/h 75 % 0.0 mm
03:50 14.1 °C 9.7 °C 1013.8 hPa Calm   3.2 km/h 75 % 0.0 mm
04:00 14.8 °C 10.0 °C 1013.8 hPa SSW 1.6 km/h 3.2 km/h 73 % 0.0 mm
04:10 14.6 °C 9.6 °C 1013.8 hPa ESE 3.2 km/h 6.4 km/h 72 % 0.0 mm
04:20 14.9 °C 9.7 °C 1013.8 hPa ESE 3.2 km/h 4.8 km/h 71 % 0.0 mm
04:30 15.4 °C 10.2 °C 1013.8 hPa East 3.2 km/h 3.2 km/h 71 % 0.0 mm
04:40 15.7 °C 10.2 °C 1013.8 hPa East 3.2 km/h 6.4 km/h 70 % 0.0 mm
04:50 16.3 °C 10.6 °C 1013.8 hPa East 3.2 km/h 8.0 km/h 69 % 0.0 mm
05:00 16.9 °C 10.9 °C 1013.8 hPa ENE 4.8 km/h 6.4 km/h 68 % 0.0 mm
05:10 16.8 °C 10.8 °C 1013.8 hPa East 3.2 km/h 9.7 km/h 68 % 0.0 mm
05:20 17.5 °C 11.3 °C 1013.8 hPa ESE 3.2 km/h 9.7 km/h 67 % 0.0 mm
05:30 17.6 °C 10.9 °C 1013.8 hPa East 4.8 km/h 6.4 km/h 65 % 0.0 mm
05:40 18.5 °C 11.8 °C 1013.8 hPa ESE 4.8 km/h 4.8 km/h 65 % 0.0 mm
05:50 18.5 °C 11.6 °C 1013.8 hPa ESE 4.8 km/h 8.0 km/h 64 % 0.0 mm
06:00 18.2 °C 11.1 °C 1013.8 hPa ESE 4.8 km/h 9.7 km/h 63 % 0.0 mm
11:02 18.8 °C 11.6 °C 1013.8 hPa ENE 6.4 km/h 6.4 km/h 63 % 0.0 mm
11:07 18.5 °C 11.3 °C 1013.8 hPa NNE 9.3 km/h 9.3 km/h 63 % 0.0 mm
11:12 18.7 °C 11.3 °C 1013.8 hPa SE 9.3 km/h 9.3 km/h 62 % 0.0 mm
11:17 19.1 °C 11.7 °C 1013.8 hPa NE 5.6 km/h 5.6 km/h 62 % 0.0 mm
11:22 19.1 °C 11.2 °C 1013.8 hPa SE 11.1 km/h 11.1 km/h 60 % 0.0 mm
11:27 18.9 °C 11.4 °C 1013.8 hPa ENE 7.4 km/h 7.4 km/h 62 % 0.0 mm
11:32 19.6 °C 11.9 °C 1013.8 hPa East 7.4 km/h 7.4 km/h 61 % 0.0 mm
11:37 19.6 °C 11.6 °C 1013.8 hPa ESE 5.8 km/h 5.8 km/h 60 % 0.0 mm
11:42 19.3 °C 11.3 °C 1012.8 hPa ESE 4.2 km/h 4.2 km/h 60 % 0.0 mm
11:47 19.8 °C 11.8 °C 1012.8 hPa ENE 5.6 km/h 5.6 km/h 60 % 0.0 mm
11:52 19.5 °C 11.3 °C 1012.8 hPa East 9.3 km/h 9.3 km/h 59 % 0.0 mm
11:57 20.3 °C 11.8 °C 1012.8 hPa SSE 6.1 km/h 6.1 km/h 58 % 0.0 mm
12:02 20.5 °C 11.9 °C 1012.8 hPa ESE 5.6 km/h 5.6 km/h 58 % 0.0 mm
12:07 19.9 °C 11.7 °C 1012.8 hPa East 7.4 km/h 7.4 km/h 59 % 0.0 mm
12:12 20.3 °C 11.8 °C 1011.7 hPa SSE 9.3 km/h 9.3 km/h 58 % 0.0 mm
12:17 20.5 °C 11.7 °C 1011.7 hPa ESE 7.9 km/h 7.9 km/h 57 % 0.0 mm
12:22 20.3 °C 11.5 °C 1011.7 hPa NNE 11.1 km/h 11.1 km/h 57 % 0.0 mm
12:27 20.8 °C 11.9 °C 1011.7 hPa ENE 6.1 km/h 6.1 km/h 57 % 0.0 mm
12:32 21.4 °C 12.3 °C 1011.7 hPa SSE 5.6 km/h 5.6 km/h 56 % 0.0 mm
12:37 21.2 °C 11.5 °C 1011.7 hPa ESE 9.3 km/h 9.3 km/h 54 % 0.0 mm
12:42 20.9 °C 11.5 °C 1011.7 hPa South 13.0 km/h 13.0 km/h 55 % 0.0 mm
12:47 20.6 °C 11.5 °C 1011.7 hPa ESE 11.1 km/h 11.1 km/h 56 % 0.0 mm
12:52 20.5 °C 11.2 °C 1011.7 hPa East 11.1 km/h 11.1 km/h 55 % 0.0 mm
12:57 20.4 °C 11.1 °C 1011.7 hPa East 14.8 km/h 14.8 km/h 55 % 0.0 mm
13:02 20.3 °C 10.9 °C 1011.7 hPa East 13.0 km/h 13.0 km/h 55 % 0.0 mm
13:07 20.4 °C 11.1 °C 1011.7 hPa ESE 16.7 km/h 16.7 km/h 55 % 0.0 mm
13:12 20.7 °C 11.3 °C 1011.7 hPa SSE 14.8 km/h 14.8 km/h 55 % 0.0 mm
13:17 20.4 °C 11.1 °C 1011.7 hPa East 18.5 km/h 18.5 km/h 55 % 0.0 mm
13:22 20.3 °C 10.9 °C 1011.7 hPa East 16.7 km/h 16.7 km/h 55 % 0.0 mm
13:27 20.2 °C 10.9 °C 1011.7 hPa ENE 18.5 km/h 18.5 km/h 55 % 0.0 mm
13:32 20.5 °C 11.2 °C 1011.7 hPa ESE 11.1 km/h 11.1 km/h 55 % 0.0 mm
13:37 20.7 °C 11.6 °C 1011.7 hPa SSE 13.0 km/h 13.0 km/h 56 % 0.0 mm
13:42 21.0 °C 11.6 °C 1011.7 hPa SSE 11.1 km/h 11.1 km/h 55 % 0.0 mm
13:47 20.9 °C 11.5 °C 1011.7 hPa ESE 13.0 km/h 13.0 km/h 55 % 0.0 mm
13:52 20.8 °C 11.4 °C 1011.7 hPa SE 13.0 km/h 13.0 km/h 55 % 0.0 mm
13:53 20.8 °C 11.4 °C 1011.7 hPa ESE 14.8 km/h 14.8 km/h 55 % 0.0 mm
13:58 20.3 °C 10.9 °C 1011.7 hPa SSW 13.0 km/h 13.0 km/h 55 % 0.0 mm
14:03 20.4 °C 11.1 °C 1011.7 hPa SE 14.8 km/h 14.8 km/h 55 % 0.0 mm
14:08 20.4 °C 10.8 °C 1011.7 hPa SE 14.8 km/h 14.8 km/h 54 % 0.0 mm
14:13 20.4 °C 11.1 °C 1010.7 hPa SE 14.8 km/h 14.8 km/h 55 % 0.0 mm
14:18 20.5 °C 11.2 °C 1010.7 hPa SE 7.4 km/h 7.4 km/h 55 % 0.0 mm
14:23 20.5 °C 10.9 °C 1010.7 hPa East 16.7 km/h 16.7 km/h 54 % 0.0 mm
14:28 20.7 °C 11.3 °C 1010.0 hPa ESE 7.4 km/h 7.4 km/h 55 % 0.0 mm
14:33 20.8 °C 11.4 °C 1010.0 hPa ENE 9.3 km/h 9.3 km/h 55 % 0.0 mm
14:38 20.6 °C 10.9 °C 1010.0 hPa NNE 14.8 km/h 14.8 km/h 54 % 0.0 mm
14:43 20.9 °C 11.5 °C 1010.0 hPa NNE 7.9 km/h 7.9 km/h 55 % 0.0 mm
14:48 20.7 °C 11.1 °C 1010.0 hPa SE 14.8 km/h 14.8 km/h 54 % 0.0 mm
14:53 21.0 °C 11.1 °C 1010.0 hPa ESE 13.0 km/h 13.0 km/h 53 % 0.0 mm
14:58 20.8 °C 11.2 °C 1009.0 hPa ENE 16.7 km/h 16.7 km/h 54 % 0.0 mm
15:03 20.8 °C 11.2 °C 1009.0 hPa SSE 19.5 km/h 19.5 km/h 54 % 0.0 mm
15:08 21.0 °C 11.1 °C 1009.0 hPa ESE 14.8 km/h 14.8 km/h 53 % 0.0 mm
15:13 21.0 °C 11.1 °C 1010.0 hPa ENE 11.1 km/h 11.1 km/h 53 % 0.0 mm
15:18 21.3 °C 11.3 °C 1010.0 hPa SSE 7.4 km/h 7.4 km/h 53 % 0.0 mm
15:23 21.2 °C 10.9 °C 1010.0 hPa ENE 20.4 km/h 20.4 km/h 52 % 0.0 mm
15:28 21.5 °C 11.2 °C 1010.0 hPa ESE 9.3 km/h 9.3 km/h 52 % 0.0 mm
15:33 21.3 °C 11.3 °C 1010.0 hPa ENE 11.4 km/h 11.4 km/h 53 % 0.0 mm
15:38 21.4 °C 11.1 °C 1010.0 hPa NNE 7.4 km/h 7.4 km/h 52 % 0.0 mm
15:43 21.9 °C 11.9 °C 1010.0 hPa SSW 11.1 km/h 11.1 km/h 53 % 0.0 mm
15:48 22.7 °C 11.4 °C 1010.0 hPa SSW 7.4 km/h 7.4 km/h 49 % 0.0 mm
15:50 23.1 °C 11.5 °C 1010.0 hPa SW 3.7 km/h 3.7 km/h 48 % 0.0 mm
15:55 23.8 °C 11.8 °C 1010.0 hPa South 5.6 km/h 5.6 km/h 47 % 0.0 mm
16:00 24.0 °C 11.7 °C 1010.0 hPa West 7.4 km/h 7.4 km/h 46 % 0.0 mm
16:05 24.0 °C 10.7 °C 1010.0 hPa SW 11.1 km/h 11.1 km/h 43 % 0.0 mm
16:10 24.3 °C 11.3 °C 1010.0 hPa SW 9.3 km/h 9.3 km/h 44 % 0.0 mm
16:15 24.5 °C 10.4 °C 1010.0 hPa SSW 7.4 km/h 7.4 km/h 41 % 0.0 mm
16:20 24.2 °C 9.7 °C 1010.0 hPa South 9.3 km/h 9.3 km/h 40 % 0.0 mm
16:25 24.4 °C 10.3 °C 1010.0 hPa SW 9.7 km/h 9.7 km/h 41 % 0.0 mm
16:30 24.3 °C 9.8 °C 1009.0 hPa WSW 11.1 km/h 11.1 km/h 40 % 0.0 mm
16:35 24.4 °C 9.6 °C 1009.0 hPa WSW 7.4 km/h 7.4 km/h 39 % 0.0 mm
16:40 24.9 °C 10.0 °C 1009.0 hPa South 7.4 km/h 7.4 km/h 39 % 0.0 mm
16:45 24.4 °C 9.2 °C 1009.0 hPa SW 5.6 km/h 5.6 km/h 38 % 0.0 mm
16:50 24.4 °C 9.2 °C 1009.0 hPa SW 9.3 km/h 9.3 km/h 38 % 0.0 mm
16:55 24.3 °C 9.1 °C 1009.0 hPa West 9.3 km/h 9.3 km/h 38 % 0.0 mm
17:00 24.0 °C 8.8 °C 1008.0 hPa South 6.1 km/h 6.1 km/h 38 % 0.0 mm
17:05 24.0 °C 8.4 °C 1008.0 hPa SW 9.3 km/h 9.3 km/h 37 % 0.0 mm
17:10 23.9 °C 7.9 °C 1008.0 hPa West 5.6 km/h 5.6 km/h 36 % 0.0 mm
17:15 23.8 °C 8.2 °C 1009.0 hPa SW 7.4 km/h 7.4 km/h 37 % 0.0 mm
17:20 23.1 °C 8.4 °C 1009.0 hPa SSW 9.3 km/h 9.3 km/h 39 % 0.0 mm
17:25 22.2 °C 9.4 °C 1009.0 hPa ENE 9.7 km/h 9.7 km/h 44 % 0.0 mm
17:30 21.6 °C 9.8 °C 1008.0 hPa East 11.1 km/h 11.1 km/h 47 % 0.0 mm
17:35 21.0 °C 9.6 °C 1008.0 hPa NE 13.0 km/h 13.0 km/h 48 % 0.0 mm
17:40 21.1 °C 9.9 °C 1008.0 hPa SE 10.3 km/h 10.3 km/h 49 % 0.0 mm
17:45 20.9 °C 10.4 °C 1008.0 hPa ESE 11.1 km/h 11.1 km/h 51 % 0.0 mm
17:50 20.8 °C 10.3 °C 1008.0 hPa ESE 14.8 km/h 14.8 km/h 51 % 0.0 mm
17:51 20.8 °C 10.3 °C 1008.0 hPa ESE 16.7 km/h 16.7 km/h 51 % 0.0 mm
17:56 20.7 °C 10.5 °C 1008.0 hPa SE 13.7 km/h 13.7 km/h 52 % 0.0 mm
18:01 20.7 °C 10.5 °C 1008.0 hPa ESE 16.7 km/h 16.7 km/h 52 % 0.0 mm
18:06 20.5 °C 10.6 °C 1008.0 hPa SSW 13.0 km/h 13.0 km/h 53 % 0.0 mm
18:11 21.1 °C 10.6 °C 1008.0 hPa ESE 5.6 km/h 5.6 km/h 51 % 0.0 mm
18:16 21.7 °C 10.8 °C 1008.0 hPa South 3.7 km/h 3.7 km/h 50 % 0.0 mm
18:21 22.0 °C 10.8 °C 1008.0 hPa South 7.4 km/h 7.4 km/h 49 % 0.0 mm
18:26 22.3 °C 10.4 °C 1007.0 hPa SSE 7.4 km/h 7.4 km/h 47 % 0.0 mm
18:31 22.4 °C 9.6 °C 1007.0 hPa SSW 5.6 km/h 5.6 km/h 44 % 0.0 mm
18:36 22.0 °C 9.8 °C 1007.0 hPa South 9.3 km/h 9.3 km/h 46 % 0.0 mm
18:41 21.3 °C 9.8 °C 1008.0 hPa SE 9.3 km/h 9.3 km/h 48 % 0.0 mm
18:46 20.0 °C 9.6 °C 1008.0 hPa ENE 14.8 km/h 14.8 km/h 51 % 0.0 mm
18:51 19.7 °C 9.8 °C 1008.0 hPa ENE 9.3 km/h 9.3 km/h 53 % 0.0 mm
18:56 19.3 °C 9.8 °C 1008.0 hPa ESE 16.7 km/h 16.7 km/h 54 % 0.0 mm
19:01 19.1 °C 10.1 °C 1008.0 hPa ESE 9.3 km/h 10.0 km/h 56 % 0.0 mm
19:06 18.6 °C 10.4 °C 1008.0 hPa ESE 11.1 km/h 11.1 km/h 59 % 0.0 mm
19:11 18.5 °C 10.1 °C 1008.0 hPa ESE 9.5 km/h 9.5 km/h 58 % 0.0 mm
19:16 18.4 °C 10.2 °C 1008.0 hPa ESE 16.4 km/h 16.4 km/h 59 % 0.0 mm
19:20 15.4 °C 11.2 °C 1009.0 hPa NE 3.2 km/h 4.8 km/h 76 % 0.0 mm
19:21 18.3 °C 10.4 °C 1008.0 hPa SSW 9.3 km/h 9.3 km/h 60 % 0.0 mm
19:27 18.3 °C 10.4 °C 1008.0 hPa ESE 13.0 km/h 13.0 km/h 60 % 0.0 mm
19:30 15.4 °C 11.4 °C 1009.0 hPa NE 1.6 km/h 4.8 km/h 77 % 0.0 mm
19:32 18.2 °C 10.3 °C 1008.0 hPa ESE 11.1 km/h 11.1 km/h 60 % 0.0 mm
19:37 18.3 °C 10.4 °C 1008.0 hPa SSE 5.6 km/h 5.6 km/h 60 % 0.0 mm
19:40 15.4 °C 11.4 °C 1008.0 hPa Calm   1.6 km/h 77 % 0.0 mm
19:42 18.2 °C 10.1 °C 1008.0 hPa ESE 9.3 km/h 9.3 km/h 59 % 0.0 mm
19:47 18.2 °C 10.1 °C 1008.0 hPa South 5.0 km/h 5.0 km/h 59 % 0.0 mm
19:50 15.4 °C 11.6 °C 1009.0 hPa Calm   3.2 km/h 78 % 0.0 mm
19:52 18.1 °C 9.9 °C 1008.0 hPa South 7.4 km/h 7.4 km/h 59 % 0.0 mm
19:53 18.1 °C 9.9 °C 1008.0 hPa SSE 7.4 km/h 7.4 km/h 59 % 0.0 mm
19:58 18.1 °C 9.7 °C 1008.0 hPa SE 5.6 km/h 5.6 km/h 58 % 0.0 mm
20:00 15.3 °C 11.5 °C 1009.0 hPa Calm   3.2 km/h 78 % 0.0 mm
20:03 18.1 °C 9.7 °C 1008.0 hPa ESE 5.6 km/h 5.6 km/h 58 % 0.0 mm
20:08 17.8 °C 9.7 °C 1008.0 hPa ESE 7.4 km/h 7.4 km/h 59 % 0.0 mm
20:10 15.2 °C 11.4 °C 1009.0 hPa West 1.6 km/h 3.2 km/h 78 % 0.0 mm
20:13 17.5 °C 9.7 °C 1008.0 hPa East 7.4 km/h 7.4 km/h 60 % 0.0 mm
20:18 17.3 °C 9.7 °C 1008.0 hPa ESE 9.3 km/h 9.3 km/h 61 % 0.0 mm
20:20 15.2 °C 11.4 °C 1008.0 hPa Calm   1.6 km/h 78 % 0.0 mm
20:23 17.2 °C 10.1 °C 1008.0 hPa ESE 8.7 km/h 8.7 km/h 63 % 0.0 mm
20:28 17.0 °C 10.1 °C 1008.0 hPa East 7.4 km/h 7.4 km/h 64 % 0.0 mm
20:30 15.2 °C 11.4 °C 1008.0 hPa Calm     78 % 0.0 mm
20:33 16.9 °C 10.5 °C 1008.0 hPa ESE 9.3 km/h 9.3 km/h 66 % 0.0 mm
20:38 16.9 °C 10.3 °C 1008.0 hPa SE 3.7 km/h 3.7 km/h 65 % 0.0 mm
20:40 15.1 °C 11.3 °C 1008.0 hPa Calm     78 % 0.0 mm
20:43 16.8 °C 10.4 °C 1008.0 hPa South 1.9 km/h 1.9 km/h 66 % 0.0 mm
20:48 16.8 °C 10.2 °C 1008.0 hPa WSW 3.7 km/h 3.7 km/h 65 % 0.0 mm
20:50 15.1 °C 11.3 °C 1008.0 hPa NNE 3.2 km/h 3.2 km/h 78 % 0.0 mm
20:53 16.8 °C 10.2 °C 1008.0 hPa Calm     65 % 0.0 mm
20:58 16.8 °C 10.2 °C 1008.0 hPa WSW 1.9 km/h   65 % 0.0 mm
21:00 15.1 °C 11.5 °C 1008.0 hPa Calm   1.6 km/h 79 % 0.0 mm
21:03 16.8 °C 10.4 °C 1008.0 hPa NE 2.3 km/h   66 % 0.0 mm
21:08 16.6 °C 10.2 °C 1008.0 hPa NNE 3.7 km/h 3.7 km/h 66 % 0.0 mm
21:10 15.0 °C 11.4 °C 1008.0 hPa Calm   3.2 km/h 79 % 0.0 mm
21:13 16.5 °C 10.3 °C 1009.0 hPa NE 2.3 km/h 2.3 km/h 67 % 0.0 mm
21:18 16.5 °C 10.3 °C 1009.0 hPa NNE 5.6 km/h 5.6 km/h 67 % 0.0 mm
21:20 14.9 °C 11.1 °C 1008.0 hPa ENE 1.6 km/h 3.2 km/h 78 % 0.0 mm
21:23 16.5 °C 10.3 °C 1009.0 hPa NNE 5.6 km/h 5.6 km/h 67 % 0.0 mm
21:25 16.4 °C 10.3 °C 1008.0 hPa NNE 5.6 km/h 5.6 km/h 67 % 0.0 mm
21:30 16.5 °C 10.3 °C 1008.0 hPa NE 3.7 km/h 3.7 km/h 67 % 0.0 mm
21:35 16.4 °C 10.5 °C 1008.0 hPa NE 5.6 km/h 5.6 km/h 68 % 0.0 mm
21:40 16.3 °C 10.6 °C 1008.0 hPa NNE 7.4 km/h 7.4 km/h 69 % 0.0 mm
21:46 16.2 °C 10.5 °C 1008.0 hPa NNE 6.9 km/h 6.9 km/h 69 % 0.0 mm
21:50 14.6 °C 11.0 °C 1007.0 hPa Calm     79 % 0.0 mm
21:51 16.2 °C 10.5 °C 1008.0 hPa ENE 7.4 km/h 7.4 km/h 69 % 0.0 mm
21:56 16.1 °C 10.8 °C 1007.0 hPa ESE 7.4 km/h 7.4 km/h 71 % 0.0 mm
22:00 14.6 °C 11.0 °C 1007.0 hPa Calm     79 % 0.0 mm
22:01 16.1 °C 10.8 °C 1007.0 hPa ENE 9.3 km/h 9.3 km/h 71 % 0.0 mm
22:06 16.0 °C 10.7 °C 1007.0 hPa ESE 9.3 km/h 9.3 km/h 71 % 0.0 mm
22:10 14.6 °C 11.0 °C 1007.0 hPa East 1.6 km/h 1.6 km/h 79 % 0.0 mm
22:12 15.9 °C 10.8 °C 1008.0 hPa ENE 9.3 km/h 9.3 km/h 72 % 0.0 mm
22:17 15.9 °C 11.1 °C 1008.0 hPa ESE 7.4 km/h 7.4 km/h 73 % 0.0 mm
22:20 14.5 °C 10.9 °C 1007.0 hPa Calm   1.6 km/h 79 % 0.0 mm
22:22 15.8 °C 10.9 °C 1008.0 hPa East 7.4 km/h 7.6 km/h 73 % 0.0 mm
22:27 15.8 °C 11.2 °C 1008.0 hPa ESE 11.1 km/h 11.1 km/h 74 % 0.0 mm
22:30 14.5 °C 10.9 °C 1007.0 hPa Calm   3.2 km/h 79 % 0.0 mm
22:32 15.7 °C 11.1 °C 1008.0 hPa East 9.3 km/h 9.3 km/h 74 % 0.0 mm
22:37 15.7 °C 11.5 °C 1008.0 hPa ENE 9.3 km/h 9.3 km/h 76 % 0.0 mm
22:40 14.4 °C 10.8 °C 1006.0 hPa West 1.6 km/h 3.2 km/h 79 % 0.0 mm
22:42 15.7 °C 11.5 °C 1008.0 hPa East 7.4 km/h 7.4 km/h 76 % 0.0 mm
22:47 15.6 °C 11.4 °C 1008.0 hPa East 5.6 km/h 5.6 km/h 76 % 0.0 mm
22:50 14.0 °C 10.6 °C 1007.0 hPa SW 1.6 km/h 4.8 km/h 80 % 0.0 mm
22:52 15.6 °C 11.4 °C 1008.0 hPa ENE 4.7 km/h 4.7 km/h 76 % 0.0 mm
22:57 15.6 °C 11.4 °C 1008.0 hPa ENE 5.6 km/h 5.6 km/h 76 % 0.0 mm
23:00 14.0 °C 10.6 °C 1007.0 hPa SW 1.6 km/h 3.2 km/h 80 % 0.0 mm
23:03 15.6 °C 11.4 °C 1008.0 hPa Calm     76 % 0.0 mm
23:08 15.6 °C 11.4 °C 1008.0 hPa Calm     76 % 0.0 mm
23:10 14.0 °C 10.6 °C 1007.0 hPa Calm   1.6 km/h 80 % 0.0 mm
23:13 15.6 °C 11.4 °C 1009.0 hPa Calm     76 % 0.0 mm
23:18 15.6 °C 11.4 °C 1009.0 hPa SE 1.9 km/h 1.9 km/h 76 % 0.0 mm
23:20 14.0 °C 10.6 °C 1007.0 hPa Calm   1.6 km/h 80 % 0.0 mm
23:23 15.5 °C 11.3 °C 1009.0 hPa East 7.4 km/h 7.4 km/h 76 % 0.0 mm
23:28 15.6 °C 11.4 °C 1009.0 hPa East 4.7 km/h 4.7 km/h 76 % 0.0 mm
23:30 13.7 °C 10.3 °C 1007.0 hPa West 1.6 km/h 3.2 km/h 80 % 0.0 mm
23:33 15.5 °C 11.3 °C 1009.0 hPa ENE 3.7 km/h 3.7 km/h 76 % 0.0 mm
23:38 15.5 °C 11.5 °C 1009.0 hPa NE 3.7 km/h 3.7 km/h 77 % 0.0 mm
23:40 13.7 °C 10.5 °C 1007.0 hPa West 1.6 km/h 3.2 km/h 81 % 0.0 mm
23:43 15.5 °C 11.3 °C 1009.0 hPa NNE 3.7 km/h 3.7 km/h 76 % 0.0 mm
23:48 15.5 °C 11.3 °C 1009.0 hPa NE 1.9 km/h 2.3 km/h 76 % 0.0 mm
23:50 13.6 °C 10.4 °C 1006.0 hPa North 1.6 km/h 3.2 km/h 81 % 0.0 mm
23:53 15.5 °C 11.3 °C 1009.0 hPa NNE 3.7 km/h 3.7 km/h 76 % 0.0 mm
23:59 15.5 °C 11.3 °C 1009.0 hPa NNE 3.7 km/h 3.7 km/h 76 % 0.0 mm
Meteo Sesrovires
Elogis d' Weather Underground - 3.75 mb

Guio original per  Jim McMurry - jmcmurry@mwt.net Adaptat per a la plantilla per  Wim van der Kuil - Leuven-Template.eu

Trobareu la nostra informacio del temps tambe a:

Weather Underground

AWEKAS